Time;durP1;ratioP1;P1;durP2;ratioP2;P2;SDS_P1;SDS_P2;PMS_P1;PMS_P2;Temp;Humidity;BMP_temperature;BMP_pressure;BME280_temperature;BME280_humidity;BME280_pressure;Samples;Min_cycle;Max_cycle;Signal;HPM_P1;HPM_P2
2023/09/26 00:02:18;;;;;;;28.52;5.25;;;;;;;12.99;100.00;100754.72;5052944;28;20526;-88
2023/09/26 00:04:44;;;;;;;18.73;4.78;;;;;;;12.96;100.00;100747.16;5034962;28;20021;-88
2023/09/26 00:07:09;;;;;;;21.77;4.00;;;;;;;12.99;100.00;100746.94;5052847;28;20025;-88
2023/09/26 00:09:35;;;;;;;17.50;2.83;;;;;;;12.96;100.00;100749.75;5053191;28;20021;-88
2023/09/26 00:12:02;;;;;;;20.30;5.50;;;;;;;12.97;100.00;100757.44;5052482;28;20036;-88
2023/09/26 00:14:28;;;;;;;23.95;3.97;;;;;;;12.95;100.00;100750.66;5053052;28;20028;-88
2023/09/26 00:16:54;;;;;;;19.73;3.97;;;;;;;12.97;100.00;100754.84;5052409;28;20036;-88
2023/09/26 00:19:19;;;;;;;15.43;3.58;;;;;;;12.95;100.00;100745.47;5052685;28;20087;-88
2023/09/26 00:21:44;;;;;;;23.08;5.47;;;;;;;13.00;100.00;100753.81;5052671;28;20029;-88
2023/09/26 00:24:10;;;;;;;19.45;4.68;;;;;;;12.93;100.00;100744.75;5052732;28;20032;-89
2023/09/26 00:26:35;;;;;;;21.80;4.38;;;;;;;12.99;100.00;100752.94;5052392;28;20029;-88
2023/09/26 00:29:01;;;;;;;15.88;3.63;;;;;;;13.00;100.00;100751.22;5052290;28;20569;-88
2023/09/26 00:31:26;;;;;;;18.70;4.28;;;;;;;13.02;100.00;100751.94;5052616;28;20075;-88
2023/09/26 00:33:53;;;;;;;33.90;5.32;;;;;;;12.98;100.00;100747.88;5052191;28;20029;-88
2023/09/26 00:36:18;;;;;;;23.40;5.28;;;;;;;12.99;100.00;100746.94;5034267;28;20028;-88
2023/09/26 00:38:43;;;;;;;23.40;4.78;;;;;;;13.01;100.00;100750.28;5052225;28;20059;-88
2023/09/26 00:41:10;;;;;;;23.00;5.53;;;;;;;13.01;100.00;100748.50;5051926;28;20029;-88
2023/09/26 00:43:35;;;;;;;18.52;4.22;;;;;;;13.06;100.00;100749.06;5052243;28;20033;-88
2023/09/26 00:46:04;;;;;;;23.25;5.13;;;;;;;13.15;100.00;100747.66;5052047;28;20400;-88
2023/09/26 00:48:30;;;;;;;26.70;5.13;;;;;;;13.19;100.00;100751.72;5052224;28;20176;-88
2023/09/26 00:50:55;;;;;;;19.80;4.60;;;;;;;13.15;100.00;100752.00;5052342;28;20116;-88
2023/09/26 00:53:21;;;;;;;29.02;5.05;;;;;;;13.24;100.00;100752.25;5051833;28;20028;-88
2023/09/26 00:55:50;;;;;;;27.23;5.95;;;;;;;13.28;100.00;100753.75;5051868;28;20032;-88
2023/09/26 00:58:21;;;;;;;34.67;4.70;;;;;;;13.26;100.00;100752.16;5051953;28;20121;-88
2023/09/26 01:00:49;;;;;;;25.45;6.30;;;;;;;13.21;100.00;100747.25;5051588;28;20024;-88
2023/09/26 01:03:16;;;;;;;26.00;5.70;;;;;;;13.26;100.00;100744.38;5051526;28;20505;-88
2023/09/26 01:05:41;;;;;;;31.75;6.50;;;;;;;13.30;100.00;100745.06;5033773;28;20129;-88
2023/09/26 01:08:07;;;;;;;32.97;6.10;;;;;;;13.31;100.00;100751.88;5051857;28;20475;-87
2023/09/26 01:10:33;;;;;;;21.80;5.75;;;;;;;13.33;100.00;100750.03;5052013;28;20073;-87
2023/09/26 01:12:58;;;;;;;21.98;4.95;;;;;;;13.39;100.00;100752.25;5051974;28;20029;-88
2023/09/26 01:15:39;;;;;;;23.13;5.85;;;;;;;13.41;100.00;100745.16;5051678;28;20523;-88
2023/09/26 01:18:13;;;;;;;26.08;5.82;;;;;;;13.44;100.00;100738.03;5051847;28;20120;-87
2023/09/26 01:20:43;;;;;;;27.00;5.68;;;;;;;13.37;100.00;100735.94;5051735;28;20017;-87
2023/09/26 01:23:11;;;;;;;27.00;4.97;;;;;;;13.37;100.00;100730.78;5051473;28;20025;-87
2023/09/26 01:25:36;;;;;;;26.70;5.93;;;;;;;13.37;100.00;100731.59;5051905;28;20090;-87
2023/09/26 01:28:07;;;;;;;26.27;5.40;;;;;;;13.36;100.00;100731.69;5051722;28;20029;-87
2023/09/26 01:30:37;;;;;;;20.20;4.63;;;;;;;13.33;100.00;100718.94;5033301;28;20035;-88
2023/09/26 01:33:05;;;;;;;18.65;4.50;;;;;;;13.22;100.00;100723.00;5051522;28;20036;-88
2023/09/26 01:35:31;;;;;;;24.55;5.00;;;;;;;13.25;100.00;100724.56;5033469;28;20473;-88
2023/09/26 01:37:56;;;;;;;31.02;5.78;;;;;;;13.16;100.00;100713.03;5051595;28;20544;-88
2023/09/26 01:40:22;;;;;;;16.92;4.07;;;;;;;13.12;100.00;100715.91;5051186;28;20033;-87
2023/09/26 01:42:47;;;;;;;18.70;4.75;;;;;;;13.05;100.00;100718.06;5033213;28;20494;-87
2023/09/26 01:45:13;;;;;;;19.58;4.32;;;;;;;12.96;100.00;100710.88;5051540;28;20024;-88
2023/09/26 01:47:49;;;;;;;19.25;4.75;;;;;;;12.88;100.00;100713.13;5051228;28;20040;-88
2023/09/26 01:50:16;;;;;;;18.55;3.72;;;;;;;12.82;100.00;100703.97;5051246;28;20025;-88
2023/09/26 01:52:42;;;;;;;24.02;4.00;;;;;;;12.79;100.00;100709.34;5051523;28;20074;-88
2023/09/26 01:55:12;;;;;;;11.55;3.88;;;;;;;12.74;100.00;100698.44;5055466;28;20033;-88
2023/09/26 01:57:37;;;;;;;13.48;3.95;;;;;;;12.67;100.00;100704.91;5055586;28;20108;-88
2023/09/26 02:00:10;;;;;;;19.10;4.05;;;;;;;12.68;100.00;100691.88;5055135;28;20589;-88
2023/09/26 02:02:37;;;;;;;15.15;3.53;;;;;;;12.69;100.00;100683.19;5055355;28;20497;-88
2023/09/26 02:05:03;;;;;;;20.42;3.90;;;;;;;12.78;100.00;100681.78;5037428;28;20479;-88
2023/09/26 02:07:28;;;;;;;22.63;4.18;;;;;;;12.91;100.00;100681.84;5055128;28;20052;-88
2023/09/26 02:09:53;;;;;;;14.57;3.20;;;;;;;12.81;100.00;100682.41;5055165;28;20067;-88
2023/09/26 02:12:19;;;;;;;12.55;3.20;;;;;;;12.77;100.00;100680.09;5036712;28;20032;-88
2023/09/26 02:14:44;;;;;;;14.55;3.13;;;;;;;12.80;100.00;100682.50;5055203;28;20021;-88
2023/09/26 02:17:10;;;;;;;23.15;3.90;;;;;;;12.88;100.00;100676.84;5037355;28;20036;-88
2023/09/26 02:19:36;;;;;;;24.25;4.55;;;;;;;12.93;100.00;100664.44;5037277;28;20053;-88
2023/09/26 02:22:02;;;;;;;19.35;4.28;;;;;;;12.98;100.00;100658.03;5054639;28;20517;-88
2023/09/26 02:24:27;;;;;;;20.17;4.55;;;;;;;13.06;100.00;100660.94;5054839;28;20541;-88
2023/09/26 02:26:56;;;;;;;31.50;6.30;;;;;;;13.18;100.00;100648.97;5054797;28;20660;-88
2023/09/26 02:29:22;;;;;;;38.28;6.63;;;;;;;13.30;100.00;100641.38;5054889;28;20032;-88
2023/09/26 02:31:47;;;;;;;34.92;6.05;;;;;;;13.28;100.00;100618.13;5054823;28;20021;-88
2023/09/26 02:34:12;;;;;;;28.55;8.10;;;;;;;13.40;100.00;100608.72;5054823;28;20055;-90
2023/09/26 02:36:38;;;;;;;23.75;5.85;;;;;;;13.38;100.00;100602.78;5036438;28;20110;-88
2023/09/26 02:39:03;;;;;;;26.42;5.72;;;;;;;13.35;100.00;100600.41;5054807;28;20355;-89
2023/09/26 02:41:28;;;;;;;26.67;6.05;;;;;;;13.32;100.00;100598.03;5036703;28;20028;-88
2023/09/26 02:43:55;;;;;;;23.85;5.63;;;;;;;13.33;100.00;100599.69;5054957;28;20113;-87
2023/09/26 02:46:21;;;;;;;26.02;5.07;;;;;;;13.40;100.00;100590.56;5054270;28;20056;-88
2023/09/26 02:48:46;;;;;;;23.05;4.28;;;;;;;13.39;100.00;100583.72;5054731;28;20057;-88
2023/09/26 02:51:12;;;;;;;29.83;5.70;;;;;;;13.41;100.00;100585.28;5054728;28;20021;-87
2023/09/26 02:53:38;;;;;;;23.48;6.53;;;;;;;13.39;100.00;100579.38;5054185;28;20478;-88
2023/09/26 02:56:03;;;;;;;15.88;3.88;;;;;;;13.46;100.00;100574.56;5054153;28;20017;-87
2023/09/26 02:58:28;;;;;;;26.33;5.32;;;;;;;13.51;100.00;100575.13;5054389;28;20024;-87
2023/09/26 03:00:54;;;;;;;23.90;4.95;;;;;;;13.49;100.00;100576.97;5052667;28;20098;-88
2023/09/26 03:03:19;;;;;;;21.15;4.50;;;;;;;13.45;100.00;100570.34;5054023;28;20013;-88
2023/09/26 03:05:52;;;;;;;26.05;5.57;;;;;;;13.58;100.00;100563.41;5035023;28;20028;-90
2023/09/26 03:08:17;;;;;;;32.03;5.45;;;;;;;13.63;100.00;100561.31;5052463;28;20414;-87
2023/09/26 03:10:43;;;;;;;24.40;5.72;;;;;;;13.57;100.00;100551.34;5053321;28;20017;-87
2023/09/26 03:13:08;;;;;;;20.23;4.90;;;;;;;13.53;100.00;100559.44;5053757;28;20470;-87
2023/09/26 03:15:34;;;;;;;25.45;5.55;;;;;;;13.44;100.00;100564.31;5054073;28;20033;-87
2023/09/26 03:18:00;;;;;;;20.90;4.68;;;;;;;13.42;100.00;100570.53;5053737;28;20424;-87
2023/09/26 03:20:25;;;;;;;22.67;5.28;;;;;;;13.42;100.00;100573.13;5053428;28;20072;-87
2023/09/26 03:22:51;;;;;;;28.05;6.13;;;;;;;13.39;100.00;100562.97;5052484;28;20372;-88
2023/09/26 03:25:16;;;;;;;18.48;4.88;;;;;;;13.42;100.00;100549.81;5053800;28;20033;-87
2023/09/26 03:27:43;;;;;;;25.50;5.85;;;;;;;13.47;100.00;100548.56;5053852;28;20483;-87
2023/09/26 03:30:08;;;;;;;26.88;5.88;;;;;;;13.52;100.00;100545.66;5053390;28;20029;-87
2023/09/26 03:32:34;;;;;;;30.15;6.50;;;;;;;13.44;100.00;100545.34;5035410;28;20033;-88
2023/09/26 03:34:59;;;;;;;20.98;5.53;;;;;;;13.44;100.00;100550.53;5053080;28;20051;-87
2023/09/26 03:37:24;;;;;;;24.48;5.20;;;;;;;13.43;100.00;100541.09;5052861;28;20033;-88
2023/09/26 03:39:50;;;;;;;34.28;7.70;;;;;;;13.47;100.00;100529.56;5053682;28;20031;-88
2023/09/26 03:42:15;;;;;;;25.67;5.47;;;;;;;13.46;100.00;100528.75;5053793;28;20024;-88
2023/09/26 03:44:43;;;;;;;23.80;5.90;;;;;;;13.45;100.00;100532.25;5053066;28;20033;-88
2023/09/26 03:47:09;;;;;;;14.93;4.75;;;;;;;13.46;100.00;100538.28;5035126;28;20501;-88
2023/09/26 03:49:34;;;;;;;18.10;4.40;;;;;;;13.46;100.00;100518.38;5053369;28;20111;-88
2023/09/26 03:52:00;;;;;;;19.50;5.40;;;;;;;13.53;100.00;100511.00;5053601;28;20106;-88
2023/09/26 03:54:26;;;;;;;26.08;6.32;;;;;;;13.49;100.00;100506.97;5034859;28;20036;-87
2023/09/26 03:56:52;;;;;;;21.13;4.80;;;;;;;13.46;100.00;100502.81;5053485;28;20036;-88
2023/09/26 03:59:17;;;;;;;25.75;4.57;;;;;;;13.45;100.00;100505.50;5052473;28;20051;-88
2023/09/26 04:01:43;;;;;;;16.33;4.40;;;;;;;13.47;100.00;100493.28;5052867;28;20475;-88
2023/09/26 04:04:08;;;;;;;30.83;6.03;;;;;;;13.48;100.00;100480.22;5035007;28;20091;-88
2023/09/26 04:06:34;;;;;;;16.50;4.63;;;;;;;13.45;100.00;100484.78;5053150;28;20079;-88
2023/09/26 04:09:00;;;;;;;18.48;4.75;;;;;;;13.49;100.00;100475.84;5052302;28;20086;-88
2023/09/26 04:11:25;;;;;;;18.27;4.90;;;;;;;13.47;100.00;100473.34;5050457;28;20391;-87
2023/09/26 04:13:51;;;;;;;17.05;4.40;;;;;;;13.46;100.00;100469.13;5052748;28;20028;-87
2023/09/26 04:16:16;;;;;;;15.85;4.05;;;;;;;13.46;100.00;100466.53;5052672;28;20421;-87
2023/09/26 04:18:45;;;;;;;18.60;4.22;;;;;;;13.58;100.00;100456.22;5034868;28;20037;-89
2023/09/26 04:21:10;;;;;;;23.67;5.45;;;;;;;13.58;100.00;100458.81;5052915;28;20425;-89
2023/09/26 04:23:36;;;;;;;18.17;4.22;;;;;;;13.56;100.00;100456.34;5052585;28;20096;-88
2023/09/26 04:26:14;;;;;;;20.20;5.05;;;;;;;13.59;100.00;100461.31;5053001;28;20454;-88
2023/09/26 04:28:43;;;;;;;11.25;3.60;;;;;;;13.62;100.00;100468.88;5052703;28;20028;-88
2023/09/26 04:31:18;;;;;;;19.55;3.95;;;;;;;13.74;100.00;100469.78;5052775;28;20502;-88
2023/09/26 04:33:45;;;;;;;27.40;5.22;;;;;;;13.87;100.00;100462.78;5052351;28;20498;-89
2023/09/26 04:36:11;;;;;;;22.58;5.22;;;;;;;13.87;100.00;100449.81;5052058;28;20037;-88
2023/09/26 04:38:37;;;;;;;20.95;5.28;;;;;;;13.99;100.00;100434.31;5052719;28;20017;-88
2023/09/26 04:41:04;;;;;;;24.55;5.88;;;;;;;14.06;100.00;100428.56;5052207;28;20033;-89
2023/09/26 04:43:33;;;;;;;22.77;5.32;;;;;;;13.97;100.00;100421.44;5034513;28;20017;-89
2023/09/26 04:45:59;;;;;;;24.70;5.35;;;;;;;14.10;100.00;100414.44;5033872;28;20479;-88
2023/09/26 04:48:24;;;;;;;22.00;5.32;;;;;;;14.02;100.00;100411.59;5052339;28;20037;-89
2023/09/26 04:50:50;;;;;;;25.85;6.00;;;;;;;13.99;100.00;100414.38;5052511;28;20028;-88
2023/09/26 04:53:15;;;;;;;31.42;6.90;;;;;;;14.09;100.00;100411.94;5052017;28;20033;-88
2023/09/26 04:55:41;;;;;;;23.23;5.65;;;;;;;14.05;100.00;100421.72;5052252;28;20437;-88
2023/09/26 04:58:07;;;;;;;24.98;5.45;;;;;;;14.11;100.00;100395.31;5051980;28;20087;-88
2023/09/26 05:00:32;;;;;;;18.88;4.85;;;;;;;14.13;100.00;100401.22;5051605;28;20044;-88
2023/09/26 05:02:58;;;;;;;16.50;4.85;;;;;;;14.22;100.00;100391.13;5051923;28;20079;-88
2023/09/26 05:05:27;;;;;;;24.15;5.43;;;;;;;14.18;100.00;100385.31;5051684;28;20107;-88
2023/09/26 05:07:53;;;;;;;18.73;4.75;;;;;;;14.24;100.00;100376.25;5051916;28;20041;-88
2023/09/26 05:10:19;;;;;;;24.20;6.18;;;;;;;14.19;100.00;100381.81;5052004;28;20021;-88
2023/09/26 05:12:44;;;;;;;23.73;5.35;;;;;;;14.15;100.00;100395.94;5051773;28;20028;-88
2023/09/26 05:15:12;;;;;;;27.40;6.03;;;;;;;14.12;100.00;100402.19;5052042;28;20043;-88
2023/09/26 05:17:41;;;;;;;25.05;4.72;;;;;;;14.19;100.00;100388.75;5051704;28;20021;-88
2023/09/26 05:20:10;;;;;;;22.83;5.95;;;;;;;14.22;100.00;100383.34;5051718;28;20035;-88
2023/09/26 05:22:36;;;;;;;19.67;4.90;;;;;;;14.22;100.00;100378.16;5051539;28;20027;-87
2023/09/26 05:25:01;;;;;;;15.95;4.65;;;;;;;14.28;100.00;100370.72;5051883;28;20111;-88
2023/09/26 05:27:27;;;;;;;14.05;4.88;;;;;;;14.36;100.00;100370.16;5032993;28;20486;-87
2023/09/26 05:29:54;;;;;;;27.50;6.03;;;;;;;14.27;100.00;100355.28;5051704;28;20106;-88
2023/09/26 05:32:19;;;;;;;16.95;5.28;;;;;;;14.23;100.00;100364.22;5051387;28;20032;-88
2023/09/26 05:34:44;;;;;;;17.73;4.75;;;;;;;14.23;100.00;100367.63;5051685;28;20029;-87
2023/09/26 05:37:09;;;;;;;16.13;4.90;;;;;;;14.21;100.00;100369.50;5051457;28;20028;-87
2023/09/26 05:39:35;;;;;;;17.20;4.35;;;;;;;14.15;100.00;100369.16;5051706;28;20021;-88
2023/09/26 05:42:01;;;;;;;19.08;5.53;;;;;;;14.12;100.00;100365.03;5051615;28;20047;-89
2023/09/26 05:44:26;;;;;;;19.75;5.13;;;;;;;14.08;100.00;100369.59;5051211;28;20086;-89
2023/09/26 05:46:52;;;;;;;17.17;5.20;;;;;;;14.17;100.00;100372.44;5051429;28;20025;-88
2023/09/26 05:49:17;;;;;;;13.75;5.10;;;;;;;14.24;100.00;100374.50;5048571;28;20108;-88
2023/09/26 05:51:42;;;;;;;14.55;4.90;;;;;;;14.19;100.00;100375.75;5051261;28;20072;-88
2023/09/26 05:54:08;;;;;;;17.20;4.32;;;;;;;14.17;100.00;100367.25;5051312;28;20056;-87
2023/09/26 05:56:33;;;;;;;18.60;4.93;;;;;;;14.19;100.00;100375.75;5050726;28;20036;-88
2023/09/26 05:58:59;;;;;;;12.27;4.35;;;;;;;14.18;100.00;100374.94;5051607;28;20104;-88
2023/09/26 06:01:24;;;;;;;14.88;4.00;;;;;;;14.16;100.00;100355.22;5051176;28;20025;-92
2023/09/26 06:03:50;;;;;;;17.80;5.05;;;;;;;14.19;100.00;100360.19;5051501;28;20025;-86
2023/09/26 06:06:16;;;;;;;17.63;4.90;;;;;;;14.17;100.00;100362.06;5050523;28;20086;-88
2023/09/26 06:08:41;;;;;;;14.43;4.32;;;;;;;14.21;100.00;100361.72;5050609;28;20025;-88
2023/09/26 06:11:09;;;;;;;11.45;4.00;;;;;;;14.18;100.00;100358.53;5050669;28;20103;-88
2023/09/26 06:13:34;;;;;;;14.38;4.53;;;;;;;14.20;100.00;100356.66;5050975;28;20029;-88
2023/09/26 06:16:03;;;;;;;16.30;4.78;;;;;;;14.23;100.00;100351.25;5051302;28;20061;-88
2023/09/26 06:18:29;;;;;;;12.02;4.25;;;;;;;14.22;100.00;100344.41;5050246;28;20017;-88
2023/09/26 06:20:54;;;;;;;18.48;4.78;;;;;;;14.36;100.00;100344.19;5050458;28;20023;-88
2023/09/26 06:23:19;;;;;;;12.25;4.40;;;;;;;14.35;100.00;100360.72;5050879;28;20052;-88
2023/09/26 06:25:45;;;;;;;11.75;4.13;;;;;;;14.36;100.00;100349.38;5050944;28;20024;-88
2023/09/26 06:28:10;;;;;;;8.98;3.45;;;;;;;14.38;100.00;100344.06;5050724;28;20039;-88
2023/09/26 06:30:36;;;;;;;9.38;4.20;;;;;;;14.32;100.00;100350.56;5049907;28;20025;-88
2023/09/26 06:33:01;;;;;;;7.20;3.53;;;;;;;14.34;100.00;100362.50;5031869;28;20108;-87
2023/09/26 06:35:27;;;;;;;5.97;2.83;;;;;;;14.48;100.00;100361.44;5050893;28;20394;-87
2023/09/26 06:37:52;;;;;;;8.50;2.50;;;;;;;14.54;100.00;100355.81;5032521;28;20061;-87
2023/09/26 06:40:17;;;;;;;2.38;1.50;;;;;;;14.62;100.00;100354.44;5053561;28;20086;-87
2023/09/26 06:42:43;;;;;;;3.47;1.30;;;;;;;14.50;100.00;100377.72;5036134;28;20091;-87
2023/09/26 06:45:09;;;;;;;2.35;1.20;;;;;;;14.41;100.00;100370.66;5054580;28;20064;-87
2023/09/26 06:47:35;;;;;;;7.53;1.25;;;;;;;14.45;100.00;100371.25;5052571;28;20390;-87
2023/09/26 06:50:00;;;;;;;3.22;1.08;;;;;;;14.38;100.00;100380.44;5054428;28;20021;-87
2023/09/26 06:52:25;;;;;;;4.20;1.20;;;;;;;14.43;100.00;100379.13;5054136;28;20115;-88
2023/09/26 06:54:51;;;;;;;1.83;0.95;;;;;;;14.40;100.00;100368.97;5036227;28;20032;-87
2023/09/26 06:57:20;;;;;;;2.10;1.08;;;;;;;14.44;100.00;100367.81;5054115;28;20071;-87
2023/09/26 06:59:52;;;;;;;5.25;1.20;;;;;;;14.35;100.00;100378.88;5053836;28;20028;-87
2023/09/26 07:02:19;;;;;;;2.05;1.27;;;;;;;14.34;100.00;100374.66;5053351;28;20021;-88
2023/09/26 07:04:46;;;;;;;3.97;1.10;;;;;;;14.32;100.00;100379.13;5036458;28;20390;-87
2023/09/26 07:07:11;;;;;;;2.03;0.75;;;;;;;14.44;100.00;100380.81;5054333;28;20029;-88
2023/09/26 07:09:38;;;;;;;2.55;0.65;;;;;;;14.45;100.00;100373.84;5053360;28;20036;-88
2023/09/26 07:12:04;;;;;;;5.43;1.00;;;;;;;14.35;100.00;100381.47;5053480;28;20128;-87
2023/09/26 07:14:33;;;;;;;5.47;1.00;;;;;;;14.27;100.00;100378.63;5035706;28;20120;-88
2023/09/26 07:16:58;;;;;;;2.30;1.00;;;;;;;14.28;100.00;100367.31;5053327;28;20151;-86
2023/09/26 07:19:24;;;;;;;2.22;0.82;;;;;;;14.30;100.00;100373.22;5051616;28;20120;-87
2023/09/26 07:21:49;;;;;;;2.47;0.70;;;;;;;14.24;100.00;100369.31;5053362;28;20082;-87
2023/09/26 07:24:14;;;;;;;3.50;0.82;;;;;;;14.27;100.00;100370.84;5053536;28;20175;-87
2023/09/26 07:26:40;;;;;;;0.95;0.52;;;;;;;14.21;100.00;100373.88;5053658;28;20116;-86
2023/09/26 07:29:07;;;;;;;1.55;0.63;;;;;;;14.22;100.00;100378.16;5053669;28;20029;-88
2023/09/26 07:31:33;;;;;;;2.38;0.90;;;;;;;14.28;100.00;100385.47;5053281;28;20100;-87
2023/09/26 07:33:58;;;;;;;3.63;0.95;;;;;;;14.24;100.00;100392.69;5035863;28;20498;-87
2023/09/26 07:36:23;;;;;;;3.75;1.10;;;;;;;14.12;100.00;100376.22;5053044;28;20386;-87
2023/09/26 07:38:49;;;;;;;1.77;0.85;;;;;;;14.15;100.00;100375.16;5053252;28;20032;-85
2023/09/26 07:41:14;;;;;;;1.83;0.77;;;;;;;14.15;100.00;100384.72;5053011;28;20037;-85
2023/09/26 07:43:39;;;;;;;2.70;1.13;;;;;;;14.13;100.00;100396.03;5053546;28;20021;-87
2023/09/26 07:46:09;;;;;;;2.25;0.93;;;;;;;14.10;100.00;100383.28;5035247;28;20037;-87
2023/09/26 07:48:36;;;;;;;5.07;1.30;;;;;;;14.15;100.00;100376.94;5053267;28;20044;-87
2023/09/26 07:51:03;;;;;;;3.22;1.10;;;;;;;14.27;100.00;100374.28;5034235;28;20413;-87
2023/09/26 07:53:28;;;;;;;1.70;0.80;;;;;;;14.48;100.00;100364.03;5052854;28;20032;-87
2023/09/26 07:55:58;;;;;;;2.17;0.98;;;;;;;14.71;100.00;100367.53;5051401;28;20025;-87
2023/09/26 07:58:23;;;;;;;1.52;1.00;;;;;;;17.17;100.00;100372.91;5058912;28;20029;-88
2023/09/26 08:00:49;;;;;;;1.83;0.98;;;;;;;17.81;100.00;100377.75;5053142;28;20021;-87
2023/09/26 08:03:14;;;;;;;4.05;1.60;;;;;;;20.15;100.00;100366.41;5052948;28;20033;-88
2023/09/26 08:05:40;;;;;;;2.55;0.90;;;;;;;21.04;97.38;100363.50;5052278;28;20033;-87
2023/09/26 08:08:06;;;;;;;4.38;1.35;;;;;;;17.80;100.00;100365.69;5057090;28;20036;-88
2023/09/26 08:10:36;;;;;;;2.08;1.27;;;;;;;16.54;100.00;100357.41;5032889;28;20122;-87
2023/09/26 08:13:02;;;;;;;2.83;1.50;;;;;;;16.15;100.00;100354.53;5033381;28;20040;-87
2023/09/26 08:15:31;;;;;;;3.33;1.23;;;;;;;16.07;100.00;100377.75;5034701;28;20391;-87
2023/09/26 08:17:56;;;;;;;2.20;1.27;;;;;;;16.00;100.00;100367.03;5033357;28;20076;-87
2023/09/26 08:20:23;;;;;;;2.75;1.27;;;;;;;16.51;100.00;100366.28;5031994;28;20037;-88
2023/09/26 08:22:49;;;;;;;2.38;0.90;;;;;;;16.77;100.00;100371.06;5036161;28;20056;-88
2023/09/26 08:25:14;;;;;;;3.60;1.40;;;;;;;16.09;100.00;100368.03;5052682;28;20104;-87
2023/09/26 08:27:40;;;;;;;3.97;1.83;;;;;;;17.65;100.00;100377.44;5034934;28;20385;-87
2023/09/26 08:30:07;;;;;;;1.65;0.90;;;;;;;16.97;100.00;100367.66;5052381;28;20025;-87
2023/09/26 08:32:33;;;;;;;5.65;1.52;;;;;;;17.10;100.00;100381.28;5034550;28;20471;-88
2023/09/26 08:34:58;;;;;;;3.40;1.23;;;;;;;19.03;100.00;100370.97;5051928;28;20123;-88
2023/09/26 08:37:24;;;;;;;3.60;1.33;;;;;;;17.80;100.00;100391.78;5034637;28;20396;-88
2023/09/26 08:39:50;;;;;;;2.78;1.35;;;;;;;17.87;100.00;100377.19;5052215;28;20031;-88
2023/09/26 08:42:24;;;;;;;5.10;1.65;;;;;;;18.22;100.00;100380.25;5051963;28;20498;-88
2023/09/26 08:44:49;;;;;;;4.82;1.35;;;;;;;19.51;100.00;100384.78;5051591;28;20033;-88
2023/09/26 08:47:15;;;;;;;4.20;1.63;;;;;;;19.72;100.00;100388.94;5051915;28;20473;-88
2023/09/26 08:49:42;;;;;;;4.18;1.20;;;;;;;19.57;100.00;100399.06;5051263;28;20071;-88
2023/09/26 08:52:08;;;;;;;3.50;1.52;;;;;;;20.02;100.00;100404.28;5051221;28;20032;-88
2023/09/26 08:54:33;;;;;;;2.90;1.08;;;;;;;20.35;100.00;100399.31;5052439;28;20390;-89
2023/09/26 08:57:00;;;;;;;2.30;1.20;;;;;;;20.71;100.00;100409.75;5052207;28;20029;-88
2023/09/26 08:59:28;;;;;;;3.05;1.35;;;;;;;20.95;100.00;100406.44;5050992;28;20043;-88
2023/09/26 09:01:54;;;;;;;3.22;1.20;;;;;;;20.97;99.54;100411.50;5051707;28;20017;-88
2023/09/26 09:04:21;;;;;;;2.67;1.20;;;;;;;21.54;95.11;100419.66;5051763;28;20033;-88
2023/09/26 09:06:47;;;;;;;4.07;1.40;;;;;;;22.30;90.05;100423.06;5052191;28;20053;-88
2023/09/26 09:09:13;;;;;;;4.22;1.42;;;;;;;22.40;83.64;100427.16;5052226;28;20067;-88
2023/09/26 09:11:39;;;;;;;3.13;1.35;;;;;;;21.30;94.36;100418.56;5052149;28;20025;-88
2023/09/26 09:14:06;;;;;;;4.85;1.55;;;;;;;20.82;92.99;100417.34;5052230;28;20501;-88
2023/09/26 09:16:32;;;;;;;6.50;1.48;;;;;;;20.83;98.47;100424.25;5052071;28;20044;-88
2023/09/26 09:18:58;;;;;;;4.40;1.55;;;;;;;20.97;95.07;100425.47;5050778;28;20127;-89
2023/09/26 09:21:31;;;;;;;4.03;1.60;;;;;;;21.04;96.00;100430.91;5051850;28;20084;-89
2023/09/26 09:24:02;;;;;;;6.88;1.63;;;;;;;20.21;100.00;100432.09;5051908;28;20235;-88
2023/09/26 09:26:34;;;;;;;4.65;1.52;;;;;;;19.76;100.00;100437.44;5051723;28;20043;-88
2023/09/26 09:29:22;;;;;;;7.03;1.52;;;;;;;20.18;100.00;100429.78;5051866;28;20127;-88
2023/09/26 09:31:49;;;;;;;4.07;1.60;;;;;;;21.07;94.83;100428.81;5051778;28;20024;-88
2023/09/26 09:34:15;;;;;;;6.97;2.13;;;;;;;20.59;98.37;100422.28;5051827;28;20425;-88
2023/09/26 09:36:40;;;;;;;6.38;1.77;;;;;;;20.43;100.00;100443.91;5051825;28;20103;-88
2023/09/26 09:39:09;;;;;;;3.80;1.80;;;;;;;20.15;96.53;100439.78;5051746;28;20104;-88
2023/09/26 09:41:37;;;;;;;7.78;1.88;;;;;;;19.45;97.61;100435.06;5051790;28;20020;-88
2023/09/26 09:44:03;;;;;;;6.53;1.80;;;;;;;19.39;100.00;100443.53;5051682;28;20069;-88
2023/09/26 09:46:33;;;;;;;6.57;1.85;;;;;;;19.48;100.00;100447.88;5051585;28;20064;-88
2023/09/26 09:49:01;;;;;;;7.82;2.03;;;;;;;19.72;100.00;100438.69;5051410;28;20108;-88
2023/09/26 09:51:26;;;;;;;6.18;2.05;;;;;;;20.10;96.61;100438.41;5051613;28;20021;-89
2023/09/26 09:53:55;;;;;;;5.75;1.65;;;;;;;20.02;97.05;100422.63;5052081;28;20352;-88
2023/09/26 09:56:24;;;;;;;6.43;2.13;;;;;;;20.20;96.04;100427.84;5051473;28;20021;-88
2023/09/26 09:58:51;;;;;;;6.82;2.08;;;;;;;20.48;91.94;100423.34;5051547;28;20025;-88
2023/09/26 10:01:20;;;;;;;8.90;2.05;;;;;;;20.32;89.42;100431.06;5051566;28;20059;-88
2023/09/26 10:03:52;;;;;;;7.22;2.33;;;;;;;19.88;87.64;100433.63;5051476;28;20108;-88
2023/09/26 10:06:18;;;;;;;;;;;;;;;20.30;92.50;100438.25;5051831;28;20079;-88
2023/09/26 10:08:47;;;;;;;7.55;1.90;;;;;;;20.22;90.30;100430.34;5051335;28;20330;-88
2023/09/26 10:11:12;;;;;;;7.13;2.03;;;;;;;20.56;88.43;100429.63;5051497;28;20031;-88
2023/09/26 10:13:37;;;;;;;7.20;2.17;;;;;;;20.69;86.34;100437.91;5051792;28;20115;-88
2023/09/26 10:16:14;;;;;;;8.13;2.80;;;;;;;20.30;82.79;100443.50;5055437;28;20044;-88
2023/09/26 10:18:41;;;;;;;9.57;2.30;;;;;;;20.52;81.95;100443.00;5055305;28;20036;-88
2023/09/26 10:21:26;;;;;;;4.78;2.33;;;;;;;20.31;85.29;100447.75;5055503;28;20017;-88
2023/09/26 10:24:12;;;;;;;6.07;2.10;;;;;;;20.41;81.20;100450.28;5055287;28;20550;-88
2023/09/26 10:26:47;;;;;;;14.82;4.38;;;;;;;20.25;77.64;100448.38;5055243;28;20033;-88
2023/09/26 10:29:24;;;;;;;8.18;3.00;;;;;;;20.34;79.28;100447.47;5055082;28;20029;-88
2023/09/26 10:32:13;;;;;;;7.40;2.15;;;;;;;20.28;75.46;100446.25;5037088;28;20025;-89
2023/09/26 10:34:38;;;;;;;6.55;2.28;;;;;;;20.64;78.51;100450.69;5036759;28;20407;-88
2023/09/26 10:37:08;;;;;;;8.75;2.60;;;;;;;20.97;77.13;100456.97;5054947;28;20029;-88
2023/09/26 10:39:36;;;;;;;9.10;2.20;;;;;;;20.99;74.62;100468.09;5037098;28;20075;-88
2023/09/26 10:42:20;;;;;;;11.25;3.05;;;;;;;20.92;76.07;100460.06;5054871;28;20037;-88
2023/09/26 10:44:49;;;;;;;9.00;2.03;;;;;;;20.56;76.56;100474.19;5054661;28;20028;-88
2023/09/26 10:47:15;;;;;;;13.32;2.55;;;;;;;20.28;79.01;100456.75;5054695;28;20063;-89
2023/09/26 10:49:41;;;;;;;7.45;1.73;;;;;;;20.37;82.39;100449.78;5054921;28;20497;-88
2023/09/26 10:52:08;;;;;;;11.85;2.97;;;;;;;20.36;84.60;100448.16;5054812;28;20029;-88
2023/09/26 10:54:36;;;;;;;8.55;2.00;;;;;;;20.19;85.01;100447.19;5054632;28;20388;-88
2023/09/26 10:57:01;;;;;;;6.10;1.90;;;;;;;20.31;83.88;100445.97;5054637;28;20017;-88
2023/09/26 10:59:30;;;;;;;9.07;2.28;;;;;;;20.36;81.27;100447.31;5054467;28;20048;-88
2023/09/26 11:01:57;;;;;;;6.78;2.42;;;;;;;20.14;82.11;100443.34;5054494;28;20029;-88
2023/09/26 11:04:30;;;;;;;11.27;2.63;;;;;;;20.02;81.37;100448.81;5054551;28;20035;-88
2023/09/26 11:06:56;;;;;;;8.35;2.45;;;;;;;20.05;84.50;100445.91;5054257;28;20056;-88
2023/09/26 11:09:22;;;;;;;8.88;1.85;;;;;;;19.97;84.91;100445.84;5054370;28;20056;-88
2023/09/26 11:11:48;;;;;;;6.88;2.17;;;;;;;20.38;83.39;100446.19;5054202;28;20033;-88
2023/09/26 11:14:14;;;;;;;7.85;2.08;;;;;;;20.68;81.86;100436.28;5054424;28;20029;-88